sensor_id;sensor_type;location;lat;lon;timestamp;P1;durP1;ratioP1;P2;durP2;ratioP2
8042;SDS011;4064;48.132;11.366;2023-02-04T00:01:38;2.37;;;2.17;;
8042;SDS011;4064;48.132;11.366;2023-02-04T00:04:03;2.37;;;2.17;;
8042;SDS011;4064;48.132;11.366;2023-02-04T00:06:29;2.07;;;1.87;;
8042;SDS011;4064;48.132;11.366;2023-02-04T00:08:55;2.20;;;2.00;;
8042;SDS011;4064;48.132;11.366;2023-02-04T00:11:21;2.30;;;2.10;;
8042;SDS011;4064;48.132;11.366;2023-02-04T00:13:46;2.30;;;2.20;;
8042;SDS011;4064;48.132;11.366;2023-02-04T00:16:12;3.37;;;2.33;;
8042;SDS011;4064;48.132;11.366;2023-02-04T00:18:38;2.27;;;2.07;;
8042;SDS011;4064;48.132;11.366;2023-02-04T00:21:03;4.20;;;3.73;;
8042;SDS011;4064;48.132;11.366;2023-02-04T00:23:29;2.33;;;2.13;;
8042;SDS011;4064;48.132;11.366;2023-02-04T00:25:55;2.13;;;1.90;;
8042;SDS011;4064;48.132;11.366;2023-02-04T00:28:20;2.27;;;2.07;;
8042;SDS011;4064;48.132;11.366;2023-02-04T00:30:46;1.80;;;1.70;;
8042;SDS011;4064;48.132;11.366;2023-02-04T00:33:12;3.30;;;2.23;;
8042;SDS011;4064;48.132;11.366;2023-02-04T00:35:37;2.83;;;2.60;;
8042;SDS011;4064;48.132;11.366;2023-02-04T00:38:04;2.33;;;2.13;;
8042;SDS011;4064;48.132;11.366;2023-02-04T00:40:30;2.67;;;1.95;;
8042;SDS011;4064;48.132;11.366;2023-02-04T00:42:56;3.20;;;2.00;;
8042;SDS011;4064;48.132;11.366;2023-02-04T00:45:22;2.80;;;2.40;;
8042;SDS011;4064;48.132;11.366;2023-02-04T00:47:47;1.70;;;1.60;;
8042;SDS011;4064;48.132;11.366;2023-02-04T00:50:13;3.40;;;2.23;;
8042;SDS011;4064;48.132;11.366;2023-02-04T00:52:39;2.30;;;2.00;;
8042;SDS011;4064;48.132;11.366;2023-02-04T00:55:05;2.10;;;1.90;;
8042;SDS011;4064;48.132;11.366;2023-02-04T00:57:32;2.35;;;2.15;;
8042;SDS011;4064;48.132;11.366;2023-02-04T00:59:58;2.00;;;1.90;;
8042;SDS011;4064;48.132;11.366;2023-02-04T01:02:23;2.33;;;2.07;;
8042;SDS011;4064;48.132;11.366;2023-02-04T01:04:49;2.23;;;2.03;;
8042;SDS011;4064;48.132;11.366;2023-02-04T01:07:15;1.90;;;1.80;;
8042;SDS011;4064;48.132;11.366;2023-02-04T01:09:40;2.30;;;2.10;;
8042;SDS011;4064;48.132;11.366;2023-02-04T01:12:06;2.13;;;1.93;;
8042;SDS011;4064;48.132;11.366;2023-02-04T01:14:31;2.43;;;2.23;;
8042;SDS011;4064;48.132;11.366;2023-02-04T01:16:57;2.40;;;2.20;;
8042;SDS011;4064;48.132;11.366;2023-02-04T01:19:23;3.27;;;2.20;;
8042;SDS011;4064;48.132;11.366;2023-02-04T01:21:48;2.57;;;2.37;;
8042;SDS011;4064;48.132;11.366;2023-02-04T01:24:14;3.80;;;2.93;;
8042;SDS011;4064;48.132;11.366;2023-02-04T01:26:40;2.60;;;2.40;;
8042;SDS011;4064;48.132;11.366;2023-02-04T01:29:05;2.43;;;2.10;;
8042;SDS011;4064;48.132;11.366;2023-02-04T01:31:31;3.13;;;2.83;;
8042;SDS011;4064;48.132;11.366;2023-02-04T01:33:58;3.13;;;1.85;;
8042;SDS011;4064;48.132;11.366;2023-02-04T01:36:25;1.63;;;1.52;;
8042;SDS011;4064;48.132;11.366;2023-02-04T01:38:51;1.20;;;0.90;;
8042;SDS011;4064;48.132;11.366;2023-02-04T01:41:17;2.83;;;1.45;;
8042;SDS011;4064;48.132;11.366;2023-02-04T01:43:44;2.10;;;1.20;;
8042;SDS011;4064;48.132;11.366;2023-02-04T01:46:10;2.33;;;1.92;;
8042;SDS011;4064;48.132;11.366;2023-02-04T01:48:36;3.93;;;1.93;;
8042;SDS011;4064;48.132;11.366;2023-02-04T01:51:03;4.10;;;2.13;;
8042;SDS011;4064;48.132;11.366;2023-02-04T01:53:32;3.63;;;2.63;;
8042;SDS011;4064;48.132;11.366;2023-02-04T01:55:59;4.85;;;3.10;;
8042;SDS011;4064;48.132;11.366;2023-02-04T01:58:24;4.13;;;2.92;;
8042;SDS011;4064;48.132;11.366;2023-02-04T02:00:51;4.45;;;3.10;;
8042;SDS011;4064;48.132;11.366;2023-02-04T02:03:16;4.47;;;3.60;;
8042;SDS011;4064;48.132;11.366;2023-02-04T02:05:44;6.47;;;2.90;;
8042;SDS011;4064;48.132;11.366;2023-02-04T02:08:13;3.72;;;3.08;;
8042;SDS011;4064;48.132;11.366;2023-02-04T02:10:40;5.65;;;2.63;;
8042;SDS011;4064;48.132;11.366;2023-02-04T02:13:09;3.95;;;3.00;;
8042;SDS011;4064;48.132;11.366;2023-02-04T02:15:36;6.60;;;3.00;;
8042;SDS011;4064;48.132;11.366;2023-02-04T02:18:03;3.97;;;3.08;;
8042;SDS011;4064;48.132;11.366;2023-02-04T02:20:28;4.90;;;3.40;;
8042;SDS011;4064;48.132;11.366;2023-02-04T02:22:57;6.30;;;3.40;;
8042;SDS011;4064;48.132;11.366;2023-02-04T02:25:23;5.78;;;3.13;;
8042;SDS011;4064;48.132;11.366;2023-02-04T02:27:49;5.43;;;3.60;;
8042;SDS011;4064;48.132;11.366;2023-02-04T02:30:15;3.93;;;3.30;;
8042;SDS011;4064;48.132;11.366;2023-02-04T02:32:44;6.28;;;3.22;;
8042;SDS011;4064;48.132;11.366;2023-02-04T02:35:11;7.25;;;3.60;;
8042;SDS011;4064;48.132;11.366;2023-02-04T02:37:37;6.47;;;3.70;;
8042;SDS011;4064;48.132;11.366;2023-02-04T02:40:02;4.47;;;3.40;;
8042;SDS011;4064;48.132;11.366;2023-02-04T02:42:29;8.20;;;4.93;;
8042;SDS011;4064;48.132;11.366;2023-02-04T02:44:55;8.57;;;4.40;;
8042;SDS011;4064;48.132;11.366;2023-02-04T02:47:22;4.50;;;3.92;;
8042;SDS011;4064;48.132;11.366;2023-02-04T02:49:49;10.35;;;4.00;;
8042;SDS011;4064;48.132;11.366;2023-02-04T02:52:17;7.82;;;3.75;;
8042;SDS011;4064;48.132;11.366;2023-02-04T02:54:43;5.05;;;3.40;;
8042;SDS011;4064;48.132;11.366;2023-02-04T02:57:13;9.82;;;4.45;;
8042;SDS011;4064;48.132;11.366;2023-02-04T02:59:41;4.90;;;3.97;;
8042;SDS011;4064;48.132;11.366;2023-02-04T03:02:07;4.85;;;3.42;;
8042;SDS011;4064;48.132;11.366;2023-02-04T03:04:45;6.32;;;4.47;;
8042;SDS011;4064;48.132;11.366;2023-02-04T03:07:17;6.97;;;3.45;;
8042;SDS011;4064;48.132;11.366;2023-02-04T03:09:45;7.32;;;3.97;;
8042;SDS011;4064;48.132;11.366;2023-02-04T03:12:10;7.57;;;4.10;;
8042;SDS011;4064;48.132;11.366;2023-02-04T03:14:36;5.20;;;4.23;;
8042;SDS011;4064;48.132;11.366;2023-02-04T03:17:03;9.13;;;3.90;;
8042;SDS011;4064;48.132;11.366;2023-02-04T03:19:30;4.85;;;3.80;;
8042;SDS011;4064;48.132;11.366;2023-02-04T03:21:57;7.18;;;4.55;;
8042;SDS011;4064;48.132;11.366;2023-02-04T03:24:23;10.18;;;4.18;;
8042;SDS011;4064;48.132;11.366;2023-02-04T03:26:50;8.82;;;4.40;;
8042;SDS011;4064;48.132;11.366;2023-02-04T03:29:16;6.07;;;3.67;;
8042;SDS011;4064;48.132;11.366;2023-02-04T03:31:42;6.57;;;3.92;;
8042;SDS011;4064;48.132;11.366;2023-02-04T03:34:08;9.00;;;4.10;;
8042;SDS011;4064;48.132;11.366;2023-02-04T03:36:33;6.33;;;3.70;;
8042;SDS011;4064;48.132;11.366;2023-02-04T03:39:00;7.13;;;3.53;;
8042;SDS011;4064;48.132;11.366;2023-02-04T03:41:27;5.85;;;3.80;;
8042;SDS011;4064;48.132;11.366;2023-02-04T03:43:53;5.35;;;4.05;;
8042;SDS011;4064;48.132;11.366;2023-02-04T03:46:19;6.50;;;3.90;;
8042;SDS011;4064;48.132;11.366;2023-02-04T03:48:47;4.07;;;3.67;;
8042;SDS011;4064;48.132;11.366;2023-02-04T03:51:12;9.33;;;4.40;;
8042;SDS011;4064;48.132;11.366;2023-02-04T03:53:38;9.33;;;5.80;;
8042;SDS011;4064;48.132;11.366;2023-02-04T03:56:03;5.73;;;4.30;;
8042;SDS011;4064;48.132;11.366;2023-02-04T03:58:29;5.80;;;3.53;;
8042;SDS011;4064;48.132;11.366;2023-02-04T04:00:55;8.00;;;4.23;;
8042;SDS011;4064;48.132;11.366;2023-02-04T04:03:20;6.87;;;3.70;;
8042;SDS011;4064;48.132;11.366;2023-02-04T04:05:46;11.07;;;4.70;;
8042;SDS011;4064;48.132;11.366;2023-02-04T04:08:12;6.77;;;4.10;;
8042;SDS011;4064;48.132;11.366;2023-02-04T04:10:37;11.30;;;3.87;;
8042;SDS011;4064;48.132;11.366;2023-02-04T04:13:03;15.73;;;5.50;;
8042;SDS011;4064;48.132;11.366;2023-02-04T04:15:29;15.83;;;4.80;;
8042;SDS011;4064;48.132;11.366;2023-02-04T04:17:54;8.50;;;3.80;;
8042;SDS011;4064;48.132;11.366;2023-02-04T04:20:20;10.33;;;4.50;;
8042;SDS011;4064;48.132;11.366;2023-02-04T04:22:49;10.75;;;4.43;;
8042;SDS011;4064;48.132;11.366;2023-02-04T04:25:15;10.25;;;3.45;;
8042;SDS011;4064;48.132;11.366;2023-02-04T04:27:41;9.90;;;4.53;;
8042;SDS011;4064;48.132;11.366;2023-02-04T04:30:07;18.00;;;4.90;;
8042;SDS011;4064;48.132;11.366;2023-02-04T04:32:33;12.82;;;4.60;;
8042;SDS011;4064;48.132;11.366;2023-02-04T04:34:58;17.13;;;4.43;;
8042;SDS011;4064;48.132;11.366;2023-02-04T04:37:24;6.60;;;3.53;;
8042;SDS011;4064;48.132;11.366;2023-02-04T04:39:49;11.97;;;4.37;;
8042;SDS011;4064;48.132;11.366;2023-02-04T04:42:15;12.67;;;3.70;;
8042;SDS011;4064;48.132;11.366;2023-02-04T04:44:41;8.73;;;3.70;;
8042;SDS011;4064;48.132;11.366;2023-02-04T04:47:06;7.90;;;3.50;;
8042;SDS011;4064;48.132;11.366;2023-02-04T04:49:32;7.77;;;4.70;;
8042;SDS011;4064;48.132;11.366;2023-02-04T04:51:57;6.33;;;3.63;;
8042;SDS011;4064;48.132;11.366;2023-02-04T04:54:23;10.60;;;4.00;;
8042;SDS011;4064;48.132;11.366;2023-02-04T04:56:49;10.10;;;3.70;;
8042;SDS011;4064;48.132;11.366;2023-02-04T04:59:14;11.67;;;3.60;;
8042;SDS011;4064;48.132;11.366;2023-02-04T05:01:40;5.80;;;3.60;;
8042;SDS011;4064;48.132;11.366;2023-02-04T05:04:05;15.80;;;6.53;;
8042;SDS011;4064;48.132;11.366;2023-02-04T05:06:31;11.80;;;4.37;;
8042;SDS011;4064;48.132;11.366;2023-02-04T05:08:57;10.60;;;4.20;;
8042;SDS011;4064;48.132;11.366;2023-02-04T05:11:22;7.47;;;3.63;;
8042;SDS011;4064;48.132;11.366;2023-02-04T05:13:48;9.97;;;4.10;;
8042;SDS011;4064;48.132;11.366;2023-02-04T05:16:14;13.53;;;4.40;;
8042;SDS011;4064;48.132;11.366;2023-02-04T05:18:40;8.55;;;3.78;;
8042;SDS011;4064;48.132;11.366;2023-02-04T05:21:06;8.90;;;4.20;;
8042;SDS011;4064;48.132;11.366;2023-02-04T05:23:32;12.10;;;3.95;;
8042;SDS011;4064;48.132;11.366;2023-02-04T05:25:58;12.57;;;4.73;;
8042;SDS011;4064;48.132;11.366;2023-02-04T05:28:24;12.63;;;4.03;;
8042;SDS011;4064;48.132;11.366;2023-02-04T05:30:49;10.63;;;4.43;;
8042;SDS011;4064;48.132;11.366;2023-02-04T05:33:15;14.40;;;5.57;;
8042;SDS011;4064;48.132;11.366;2023-02-04T05:35:41;14.27;;;4.60;;
8042;SDS011;4064;48.132;11.366;2023-02-04T05:38:06;12.53;;;4.70;;
8042;SDS011;4064;48.132;11.366;2023-02-04T05:40:32;10.23;;;4.30;;
8042;SDS011;4064;48.132;11.366;2023-02-04T05:42:58;14.20;;;4.27;;
8042;SDS011;4064;48.132;11.366;2023-02-04T05:45:23;17.70;;;4.90;;
8042;SDS011;4064;48.132;11.366;2023-02-04T05:47:49;9.67;;;4.73;;
8042;SDS011;4064;48.132;11.366;2023-02-04T05:50:14;11.33;;;4.80;;
8042;SDS011;4064;48.132;11.366;2023-02-04T05:52:40;18.23;;;4.43;;
8042;SDS011;4064;48.132;11.366;2023-02-04T05:55:06;11.13;;;4.50;;
8042;SDS011;4064;48.132;11.366;2023-02-04T05:57:34;7.10;;;4.68;;
8042;SDS011;4064;48.132;11.366;2023-02-04T05:59:59;15.80;;;4.93;;
8042;SDS011;4064;48.132;11.366;2023-02-04T06:02:25;9.13;;;4.63;;
8042;SDS011;4064;48.132;11.366;2023-02-04T06:04:51;8.00;;;5.00;;
8042;SDS011;4064;48.132;11.366;2023-02-04T06:07:16;7.80;;;5.30;;
8042;SDS011;4064;48.132;11.366;2023-02-04T06:09:42;9.50;;;4.67;;
8042;SDS011;4064;48.132;11.366;2023-02-04T06:12:08;16.67;;;5.15;;
8042;SDS011;4064;48.132;11.366;2023-02-04T06:14:34;11.13;;;5.53;;
8042;SDS011;4064;48.132;11.366;2023-02-04T06:17:00;14.23;;;5.30;;
8042;SDS011;4064;48.132;11.366;2023-02-04T06:19:25;11.10;;;4.77;;
8042;SDS011;4064;48.132;11.366;2023-02-04T06:21:51;15.50;;;5.23;;
8042;SDS011;4064;48.132;11.366;2023-02-04T06:24:17;6.57;;;4.90;;
8042;SDS011;4064;48.132;11.366;2023-02-04T06:26:42;7.27;;;3.93;;
8042;SDS011;4064;48.132;11.366;2023-02-04T06:29:08;18.20;;;5.07;;
8042;SDS011;4064;48.132;11.366;2023-02-04T06:31:34;18.93;;;4.70;;
8042;SDS011;4064;48.132;11.366;2023-02-04T06:34:02;15.30;;;8.35;;
8042;SDS011;4064;48.132;11.366;2023-02-04T06:36:29;15.75;;;4.78;;
8042;SDS011;4064;48.132;11.366;2023-02-04T06:38:55;9.80;;;4.80;;
8042;SDS011;4064;48.132;11.366;2023-02-04T06:41:21;8.60;;;4.90;;
8042;SDS011;4064;48.132;11.366;2023-02-04T06:43:47;18.77;;;5.07;;
8042;SDS011;4064;48.132;11.366;2023-02-04T06:46:12;9.33;;;4.63;;
8042;SDS011;4064;48.132;11.366;2023-02-04T06:48:38;9.63;;;4.00;;
8042;SDS011;4064;48.132;11.366;2023-02-04T06:51:04;9.60;;;4.80;;
8042;SDS011;4064;48.132;11.366;2023-02-04T06:53:29;8.70;;;4.50;;
8042;SDS011;4064;48.132;11.366;2023-02-04T06:55:55;7.70;;;5.20;;
8042;SDS011;4064;48.132;11.366;2023-02-04T06:58:21;13.07;;;6.07;;
8042;SDS011;4064;48.132;11.366;2023-02-04T07:00:46;5.33;;;4.40;;
8042;SDS011;4064;48.132;11.366;2023-02-04T07:03:12;9.00;;;4.27;;
8042;SDS011;4064;48.132;11.366;2023-02-04T07:05:38;15.00;;;4.83;;
8042;SDS011;4064;48.132;11.366;2023-02-04T07:08:03;15.10;;;5.20;;
8042;SDS011;4064;48.132;11.366;2023-02-04T07:10:30;13.15;;;4.38;;
8042;SDS011;4064;48.132;11.366;2023-02-04T07:12:56;14.45;;;5.15;;
8042;SDS011;4064;48.132;11.366;2023-02-04T07:15:22;17.20;;;4.47;;
8042;SDS011;4064;48.132;11.366;2023-02-04T07:17:47;7.43;;;3.87;;
8042;SDS011;4064;48.132;11.366;2023-02-04T07:20:13;11.57;;;4.73;;
8042;SDS011;4064;48.132;11.366;2023-02-04T07:22:39;11.73;;;4.70;;
8042;SDS011;4064;48.132;11.366;2023-02-04T07:25:05;11.23;;;4.32;;
8042;SDS011;4064;48.132;11.366;2023-02-04T07:27:31;15.97;;;4.50;;
8042;SDS011;4064;48.132;11.366;2023-02-04T07:29:56;10.40;;;5.20;;
8042;SDS011;4064;48.132;11.366;2023-02-04T07:32:22;7.87;;;4.00;;
8042;SDS011;4064;48.132;11.366;2023-02-04T07:34:48;9.13;;;4.13;;
8042;SDS011;4064;48.132;11.366;2023-02-04T07:37:13;11.93;;;4.17;;
8042;SDS011;4064;48.132;11.366;2023-02-04T07:39:39;10.90;;;4.53;;
8042;SDS011;4064;48.132;11.366;2023-02-04T07:42:05;12.07;;;4.00;;
8042;SDS011;4064;48.132;11.366;2023-02-04T07:44:30;8.67;;;3.80;;
8042;SDS011;4064;48.132;11.366;2023-02-04T07:46:56;6.00;;;3.30;;
8042;SDS011;4064;48.132;11.366;2023-02-04T07:49:21;14.10;;;4.20;;
8042;SDS011;4064;48.132;11.366;2023-02-04T07:51:47;7.10;;;3.70;;
8042;SDS011;4064;48.132;11.366;2023-02-04T07:54:13;7.40;;;3.47;;
8042;SDS011;4064;48.132;11.366;2023-02-04T07:56:38;12.60;;;3.10;;
8042;SDS011;4064;48.132;11.366;2023-02-04T07:59:04;10.40;;;4.40;;
8042;SDS011;4064;48.132;11.366;2023-02-04T08:01:30;10.10;;;3.43;;
8042;SDS011;4064;48.132;11.366;2023-02-04T08:03:55;6.33;;;3.40;;
8042;SDS011;4064;48.132;11.366;2023-02-04T08:06:21;5.20;;;3.40;;
8042;SDS011;4064;48.132;11.366;2023-02-04T08:08:47;4.67;;;3.23;;
8042;SDS011;4064;48.132;11.366;2023-02-04T08:11:13;7.43;;;2.93;;
8042;SDS011;4064;48.132;11.366;2023-02-04T08:13:38;8.30;;;3.80;;
8042;SDS011;4064;48.132;11.366;2023-02-04T08:16:04;10.30;;;3.10;;
8042;SDS011;4064;48.132;11.366;2023-02-04T08:18:30;5.53;;;3.20;;
8042;SDS011;4064;48.132;11.366;2023-02-04T08:20:56;8.10;;;2.87;;
8042;SDS011;4064;48.132;11.366;2023-02-04T08:23:23;8.07;;;3.58;;
8042;SDS011;4064;48.132;11.366;2023-02-04T08:25:48;5.50;;;2.70;;
8042;SDS011;4064;48.132;11.366;2023-02-04T08:28:14;9.03;;;3.90;;
8042;SDS011;4064;48.132;11.366;2023-02-04T08:30:40;5.13;;;2.40;;
8042;SDS011;4064;48.132;11.366;2023-02-04T08:33:05;10.20;;;5.10;;
8042;SDS011;4064;48.132;11.366;2023-02-04T08:35:31;7.03;;;4.00;;
8042;SDS011;4064;48.132;11.366;2023-02-04T08:37:57;8.13;;;3.73;;
8042;SDS011;4064;48.132;11.366;2023-02-04T08:40:22;6.60;;;3.00;;
8042;SDS011;4064;48.132;11.366;2023-02-04T08:42:48;8.47;;;3.50;;
8042;SDS011;4064;48.132;11.366;2023-02-04T08:45:14;14.17;;;4.17;;
8042;SDS011;4064;48.132;11.366;2023-02-04T08:47:39;6.33;;;3.10;;
8042;SDS011;4064;48.132;11.366;2023-02-04T08:50:05;7.90;;;5.00;;
8042;SDS011;4064;48.132;11.366;2023-02-04T08:52:31;9.77;;;3.95;;
8042;SDS011;4064;48.132;11.366;2023-02-04T08:54:57;16.03;;;4.33;;
8042;SDS011;4064;48.132;11.366;2023-02-04T08:57:23;6.20;;;3.30;;
8042;SDS011;4064;48.132;11.366;2023-02-04T08:59:48;12.10;;;3.23;;
8042;SDS011;4064;48.132;11.366;2023-02-04T09:02:14;6.20;;;2.93;;
8042;SDS011;4064;48.132;11.366;2023-02-04T09:04:39;8.60;;;3.10;;
8042;SDS011;4064;48.132;11.366;2023-02-04T09:07:05;9.50;;;2.90;;
8042;SDS011;4064;48.132;11.366;2023-02-04T09:09:31;11.30;;;3.67;;
8042;SDS011;4064;48.132;11.366;2023-02-04T09:11:56;6.90;;;3.13;;
8042;SDS011;4064;48.132;11.366;2023-02-04T09:14:22;18.70;;;3.77;;
8042;SDS011;4064;48.132;11.366;2023-02-04T09:16:47;9.80;;;2.97;;
8042;SDS011;4064;48.132;11.366;2023-02-04T09:19:13;4.60;;;2.67;;
8042;SDS011;4064;48.132;11.366;2023-02-04T09:21:40;8.10;;;2.72;;
8042;SDS011;4064;48.132;11.366;2023-02-04T09:24:06;5.15;;;2.63;;
8042;SDS011;4064;48.132;11.366;2023-02-04T09:26:32;11.57;;;3.30;;
8042;SDS011;4064;48.132;11.366;2023-02-04T09:28:58;7.60;;;3.50;;
8042;SDS011;4064;48.132;11.366;2023-02-04T09:31:23;7.90;;;3.03;;
8042;SDS011;4064;48.132;11.366;2023-02-04T09:33:49;7.93;;;3.83;;
8042;SDS011;4064;48.132;11.366;2023-02-04T09:36:14;8.93;;;3.90;;
8042;SDS011;4064;48.132;11.366;2023-02-04T09:38:41;8.98;;;2.47;;
8042;SDS011;4064;48.132;11.366;2023-02-04T09:41:07;10.13;;;3.10;;
8042;SDS011;4064;48.132;11.366;2023-02-04T09:43:39;9.65;;;3.50;;
8042;SDS011;4064;48.132;11.366;2023-02-04T09:46:29;7.63;;;2.95;;
8042;SDS011;4064;48.132;11.366;2023-02-04T09:48:54;10.90;;;3.70;;
8042;SDS011;4064;48.132;11.366;2023-02-04T09:51:24;11.32;;;3.88;;
8042;SDS011;4064;48.132;11.366;2023-02-04T09:53:52;11.57;;;3.42;;
8042;SDS011;4064;48.132;11.366;2023-02-04T09:56:23;13.57;;;4.50;;
8042;SDS011;4064;48.132;11.366;2023-02-04T09:58:49;8.32;;;3.50;;
8042;SDS011;4064;48.132;11.366;2023-02-04T10:01:16;9.50;;;4.30;;
8042;SDS011;4064;48.132;11.366;2023-02-04T10:03:44;8.32;;;3.35;;
8042;SDS011;4064;48.132;11.366;2023-02-04T10:06:14;9.10;;;3.50;;
8042;SDS011;4064;48.132;11.366;2023-02-04T10:08:45;8.85;;;3.30;;
8042;SDS011;4064;48.132;11.366;2023-02-04T10:11:13;9.70;;;3.20;;
8042;SDS011;4064;48.132;11.366;2023-02-04T10:13:41;17.73;;;4.00;;
8042;SDS011;4064;48.132;11.366;2023-02-04T10:16:14;7.43;;;2.40;;
8042;SDS011;4064;48.132;11.366;2023-02-04T10:18:42;5.57;;;2.67;;
8042;SDS011;4064;48.132;11.366;2023-02-04T10:21:13;8.70;;;3.60;;
8042;SDS011;4064;48.132;11.366;2023-02-04T10:23:47;10.50;;;3.37;;
8042;SDS011;4064;48.132;11.366;2023-02-04T10:26:16;6.13;;;2.90;;
8042;SDS011;4064;48.132;11.366;2023-02-04T10:28:42;11.43;;;3.37;;
8042;SDS011;4064;48.132;11.366;2023-02-04T10:34:15;11.20;;;2.70;;
8042;SDS011;4064;48.132;11.366;2023-02-04T10:36:45;11.50;;;2.67;;
8042;SDS011;4064;48.132;11.366;2023-02-04T10:39:25;6.20;;;2.70;;
8042;SDS011;4064;48.132;11.366;2023-02-04T10:41:53;6.77;;;2.43;;
8042;SDS011;4064;48.132;11.366;2023-02-04T10:44:30;7.93;;;2.83;;
8042;SDS011;4064;48.132;11.366;2023-02-04T10:47:01;7.33;;;2.90;;
8042;SDS011;4064;48.132;11.366;2023-02-04T10:49:28;7.03;;;2.90;;
8042;SDS011;4064;48.132;11.366;2023-02-04T10:51:54;14.10;;;2.70;;
8042;SDS011;4064;48.132;11.366;2023-02-04T10:54:20;10.10;;;4.57;;
8042;SDS011;4064;48.132;11.366;2023-02-04T10:57:10;6.27;;;2.97;;
8042;SDS011;4064;48.132;11.366;2023-02-04T10:59:45;6.60;;;2.50;;
8042;SDS011;4064;48.132;11.366;2023-02-04T11:05:11;8.50;;;2.80;;
8042;SDS011;4064;48.132;11.366;2023-02-04T11:07:39;5.77;;;2.60;;
8042;SDS011;4064;48.132;11.366;2023-02-04T11:10:05;6.80;;;1.63;;
8042;SDS011;4064;48.132;11.366;2023-02-04T11:12:45;9.47;;;1.97;;
8042;SDS011;4064;48.132;11.366;2023-02-04T11:20:45;6.40;;;2.10;;
8042;SDS011;4064;48.132;11.366;2023-02-04T11:23:14;3.43;;;1.90;;
8042;SDS011;4064;48.132;11.366;2023-02-04T11:26:30;4.17;;;1.50;;
8042;SDS011;4064;48.132;11.366;2023-02-04T11:34:43;8.93;;;1.80;;
8042;SDS011;4064;48.132;11.366;2023-02-04T11:39:31;7.90;;;2.40;;
8042;SDS011;4064;48.132;11.366;2023-02-04T11:42:13;7.73;;;2.50;;
8042;SDS011;4064;48.132;11.366;2023-02-04T11:44:40;7.70;;;2.80;;
8042;SDS011;4064;48.132;11.366;2023-02-04T11:47:06;9.23;;;2.50;;
8042;SDS011;4064;48.132;11.366;2023-02-04T11:49:34;6.70;;;2.73;;
8042;SDS011;4064;48.132;11.366;2023-02-04T11:52:10;5.00;;;2.43;;
8042;SDS011;4064;48.132;11.366;2023-02-04T11:54:38;5.30;;;2.13;;
8042;SDS011;4064;48.132;11.366;2023-02-04T11:57:03;4.17;;;2.20;;
8042;SDS011;4064;48.132;11.366;2023-02-04T11:59:29;4.03;;;2.10;;
8042;SDS011;4064;48.132;11.366;2023-02-04T12:04:51;4.50;;;1.80;;
8042;SDS011;4064;48.132;11.366;2023-02-04T12:07:26;10.10;;;2.20;;
8042;SDS011;4064;48.132;11.366;2023-02-04T12:09:53;6.70;;;2.10;;
8042;SDS011;4064;48.132;11.366;2023-02-04T12:12:23;2.90;;;1.80;;
8042;SDS011;4064;48.132;11.366;2023-02-04T12:14:58;4.30;;;1.97;;
8042;SDS011;4064;48.132;11.366;2023-02-04T12:17:27;3.20;;;1.70;;
8042;SDS011;4064;48.132;11.366;2023-02-04T12:19:53;2.83;;;1.33;;
8042;SDS011;4064;48.132;11.366;2023-02-04T12:22:18;3.03;;;1.87;;
8042;SDS011;4064;48.132;11.366;2023-02-04T12:24:44;5.40;;;2.50;;
8042;SDS011;4064;48.132;11.366;2023-02-04T12:27:09;2.70;;;1.90;;
8042;SDS011;4064;48.132;11.366;2023-02-04T12:29:35;3.63;;;1.43;;
8042;SDS011;4064;48.132;11.366;2023-02-04T12:32:01;2.90;;;1.63;;
8042;SDS011;4064;48.132;11.366;2023-02-04T12:34:26;2.10;;;1.43;;
8042;SDS011;4064;48.132;11.366;2023-02-04T12:36:52;4.17;;;1.80;;
8042;SDS011;4064;48.132;11.366;2023-02-04T12:39:18;2.90;;;1.40;;
8042;SDS011;4064;48.132;11.366;2023-02-04T12:41:43;3.60;;;1.87;;
8042;SDS011;4064;48.132;11.366;2023-02-04T12:44:09;2.47;;;1.60;;
8042;SDS011;4064;48.132;11.366;2023-02-04T12:46:35;2.37;;;1.80;;
8042;SDS011;4064;48.132;11.366;2023-02-04T12:49:00;1.90;;;1.70;;
8042;SDS011;4064;48.132;11.366;2023-02-04T12:51:26;2.27;;;1.50;;
8042;SDS011;4064;48.132;11.366;2023-02-04T12:53:51;2.67;;;1.53;;
8042;SDS011;4064;48.132;11.366;2023-02-04T12:56:17;2.47;;;1.43;;
8042;SDS011;4064;48.132;11.366;2023-02-04T12:58:44;4.10;;;2.27;;
8042;SDS011;4064;48.132;11.366;2023-02-04T13:01:10;4.03;;;1.83;;
8042;SDS011;4064;48.132;11.366;2023-02-04T13:03:36;3.20;;;1.40;;
8042;SDS011;4064;48.132;11.366;2023-02-04T13:06:01;2.53;;;1.60;;
8042;SDS011;4064;48.132;11.366;2023-02-04T13:08:27;3.10;;;1.70;;
8042;SDS011;4064;48.132;11.366;2023-02-04T13:10:53;2.50;;;1.50;;
8042;SDS011;4064;48.132;11.366;2023-02-04T13:13:20;5.10;;;2.00;;
8042;SDS011;4064;48.132;11.366;2023-02-04T13:15:47;2.45;;;2.00;;
8042;SDS011;4064;48.132;11.366;2023-02-04T13:18:13;5.10;;;2.80;;
8042;SDS011;4064;48.132;11.366;2023-02-04T13:20:39;4.70;;;3.25;;
8042;SDS011;4064;48.132;11.366;2023-02-04T13:23:05;2.77;;;1.80;;
8042;SDS011;4064;48.132;11.366;2023-02-04T13:25:30;2.07;;;1.67;;
8042;SDS011;4064;48.132;11.366;2023-02-04T13:27:56;2.97;;;1.57;;
8042;SDS011;4064;48.132;11.366;2023-02-04T13:30:22;2.90;;;2.20;;
8042;SDS011;4064;48.132;11.366;2023-02-04T13:32:47;2.83;;;1.83;;
8042;SDS011;4064;48.132;11.366;2023-02-04T13:35:13;2.60;;;2.30;;
8042;SDS011;4064;48.132;11.366;2023-02-04T13:37:39;3.83;;;2.00;;
8042;SDS011;4064;48.132;11.366;2023-02-04T13:40:05;5.47;;;2.80;;
8042;SDS011;4064;48.132;11.366;2023-02-04T13:42:31;5.63;;;2.38;;
8042;SDS011;4064;48.132;11.366;2023-02-04T13:44:57;3.63;;;2.10;;
8042;SDS011;4064;48.132;11.366;2023-02-04T13:47:23;2.17;;;1.97;;
8042;SDS011;4064;48.132;11.366;2023-02-04T13:49:49;7.67;;;2.00;;
8042;SDS011;4064;48.132;11.366;2023-02-04T13:52:14;2.73;;;2.10;;
8042;SDS011;4064;48.132;11.366;2023-02-04T13:54:42;3.90;;;2.28;;
8042;SDS011;4064;48.132;11.366;2023-02-04T13:57:08;6.55;;;2.55;;
8042;SDS011;4064;48.132;11.366;2023-02-04T13:59:33;2.40;;;2.20;;
8042;SDS011;4064;48.132;11.366;2023-02-04T14:01:59;2.40;;;1.80;;
8042;SDS011;4064;48.132;11.366;2023-02-04T14:04:25;2.90;;;2.20;;
8042;SDS011;4064;48.132;11.366;2023-02-04T14:06:51;4.10;;;2.00;;
8042;SDS011;4064;48.132;11.366;2023-02-04T14:09:18;2.50;;;1.90;;
8042;SDS011;4064;48.132;11.366;2023-02-04T14:11:45;3.90;;;2.15;;
8042;SDS011;4064;48.132;11.366;2023-02-04T14:14:11;2.50;;;1.83;;
8042;SDS011;4064;48.132;11.366;2023-02-04T14:16:37;5.00;;;2.13;;
8042;SDS011;4064;48.132;11.366;2023-02-04T14:19:02;4.43;;;2.07;;
8042;SDS011;4064;48.132;11.366;2023-02-04T14:21:28;2.30;;;2.00;;
8042;SDS011;4064;48.132;11.366;2023-02-04T14:23:54;1.83;;;1.40;;
8042;SDS011;4064;48.132;11.366;2023-02-04T14:26:19;3.43;;;2.23;;
8042;SDS011;4064;48.132;11.366;2023-02-04T14:28:45;4.83;;;2.43;;
8042;SDS011;4064;48.132;11.366;2023-02-04T14:31:11;4.50;;;2.50;;
8042;SDS011;4064;48.132;11.366;2023-02-04T14:33:36;3.67;;;2.80;;
8042;SDS011;4064;48.132;11.366;2023-02-04T14:36:02;2.20;;;1.93;;
8042;SDS011;4064;48.132;11.366;2023-02-04T14:38:28;4.40;;;2.30;;
8042;SDS011;4064;48.132;11.366;2023-02-04T14:40:55;2.17;;;1.98;;
8042;SDS011;4064;48.132;11.366;2023-02-04T14:43:22;4.60;;;2.10;;
8042;SDS011;4064;48.132;11.366;2023-02-04T14:45:48;5.73;;;1.70;;
8042;SDS011;4064;48.132;11.366;2023-02-04T14:48:13;2.43;;;1.83;;
8042;SDS011;4064;48.132;11.366;2023-02-04T14:50:39;2.90;;;2.10;;
8042;SDS011;4064;48.132;11.366;2023-02-04T14:53:05;1.83;;;1.73;;
8042;SDS011;4064;48.132;11.366;2023-02-04T14:55:30;4.60;;;2.07;;
8042;SDS011;4064;48.132;11.366;2023-02-04T14:57:56;2.10;;;1.90;;
8042;SDS011;4064;48.132;11.366;2023-02-04T15:00:21;2.27;;;1.80;;
8042;SDS011;4064;48.132;11.366;2023-02-04T15:02:47;2.27;;;1.37;;
8042;SDS011;4064;48.132;11.366;2023-02-04T15:05:13;1.87;;;1.77;;
8042;SDS011;4064;48.132;11.366;2023-02-04T15:07:39;2.60;;;1.90;;
8042;SDS011;4064;48.132;11.366;2023-02-04T15:10:05;2.45;;;1.80;;
8042;SDS011;4064;48.132;11.366;2023-02-04T15:12:32;2.20;;;2.00;;
8042;SDS011;4064;48.132;11.366;2023-02-04T15:14:57;3.43;;;2.20;;
8042;SDS011;4064;48.132;11.366;2023-02-04T15:17:23;5.93;;;2.13;;